Terminal Aerodrome Forecast
Issued by NWS

Home | Current Version | Previous Version | Text Only | Print | Product List | Glossary On
Versions: 1 2 3 4 5 6 7 8 9 10 11 12
745
FTPA31 PHFO 202320
TAFHJH
TAF
PHJH 202320Z 2100/2124 06017G27KT P6SM FEW030 FEW045
     FM210600 06010G15KT P6SM FEW030 FEW045
     FM211900 05016G25KT P6SM FEW030 SCT045
      AMD NOT SKED AFT 210400=

USA.gov is the U.S. government's official web portal to all federal, state and local government web resources and services.